Time;durP1;ratioP1;P1;durP2;ratioP2;P2;SDS_P1;SDS_P2;PMS_P1;PMS_P2;Temp;Humidity;BMP_temperature;BMP_pressure;BME280_temperature;BME280_humidity;BME280_pressure;Samples;Min_cycle;Max_cycle;Signal;HPM_P1;HPM_P2
2022/11/13 00:00:51;;;;;;;18.33;8.50;;;6.60;99.90;;;;;;4897676;29;20280;-88
2022/11/13 00:03:17;;;;;;;16.17;7.20;;;;;;;;;;4900039;29;20643;-87
2022/11/13 00:05:42;;;;;;;17.60;7.50;;;6.70;99.90;;;;;;4901116;29;20250;-87
2022/11/13 00:08:08;;;;;;;15.77;5.00;;;6.90;99.90;;;;;;4884569;29;20193;-88
2022/11/13 00:10:34;;;;;;;17.83;7.20;;;7.30;99.90;;;;;;4869045;29;20215;-87
2022/11/13 00:13:00;;;;;;;16.73;7.50;;;;;;;;;;4869089;29;20189;-87
2022/11/13 00:15:25;;;;;;;12.63;6.13;;;6.70;99.90;;;;;;4901525;29;20185;-88
2022/11/13 00:17:51;;;;;;;20.33;8.43;;;9.60;99.90;;;;;;4868957;29;20588;-87
2022/11/13 00:20:17;;;;;;;15.87;7.03;;;8.20;99.90;;;;;;4884495;29;20197;-87
2022/11/13 00:22:43;;;;;;;17.43;7.33;;;;;;;;;;4884590;29;20348;-86
2022/11/13 00:25:09;;;;;;;15.30;7.17;;;6.70;99.90;;;;;;4884470;29;20236;-87
2022/11/13 00:27:35;;;;;;;14.00;6.53;;;;;;;;;;4884382;29;20268;-87
2022/11/13 00:30:01;;;;;;;13.77;7.60;;;;;;;;;;4901323;29;20298;-87
2022/11/13 00:32:27;;;;;;;19.13;7.50;;;;;;;;;;4868809;29;20185;-87
2022/11/13 00:34:53;;;;;;;18.57;8.13;;;;;;;;;;4884063;29;20197;-87
2022/11/13 00:37:19;;;;;;;24.50;8.43;;;;;;;;;;4884089;29;20224;-87
2022/11/13 00:39:46;;;;;;;19.20;9.70;;;;;;;;;;4883891;29;20651;-86
2022/11/13 00:42:12;;;;;;;21.07;8.37;;;;;;;;;;4884031;29;20552;-86
2022/11/13 00:44:37;;;;;;;16.77;7.40;;;6.60;99.90;;;;;;4900914;29;20195;-87
2022/11/13 00:47:03;;;;;;;22.67;7.57;;;;;;;;;;4868374;29;20193;-87
2022/11/13 00:49:29;;;;;;;19.30;7.93;;;;;;;;;;4883621;29;20190;-87
2022/11/13 00:51:55;;;;;;;26.40;9.20;;;6.60;99.90;;;;;;4884308;29;20257;-88
2022/11/13 00:54:21;;;;;;;23.47;8.03;;;;;;;;;;4883904;29;20517;-87
2022/11/13 00:56:47;;;;;;;23.73;7.83;;;6.60;99.90;;;;;;4883915;29;20229;-88
2022/11/13 00:59:13;;;;;;;22.70;9.60;;;;;;;;;;4868292;29;20235;-87
2022/11/13 01:01:39;;;;;;;26.50;8.97;;;;;;;;;;4900301;29;20213;-87
2022/11/13 01:04:05;;;;;;;29.20;9.80;;;6.70;99.90;;;;;;4868365;29;20197;-87
2022/11/13 01:06:31;;;;;;;20.87;8.20;;;;;;;;;;4868144;29;20240;-87
2022/11/13 01:08:58;;;;;;;20.20;9.13;;;6.60;99.90;;;;;;4868096;29;20726;-87
2022/11/13 01:11:27;;;;;;;28.60;11.10;;;6.70;99.90;;;;;;4883691;29;20192;-89
2022/11/13 01:13:53;;;;;;;41.17;9.90;;;;;;;;;;4899522;29;20710;-87
2022/11/13 01:16:25;;;;;;;18.43;7.47;;;6.70;99.90;;;;;;4883601;29;20232;-88
2022/11/13 01:18:53;;;;;;;17.20;6.20;;;6.60;99.90;;;;;;4883132;29;20220;-87
2022/11/13 01:21:21;;;;;;;23.60;11.87;;;6.60;99.90;;;;;;4900520;29;20182;-88
2022/11/13 01:23:48;;;;;;;35.17;10.80;;;;;;;;;;4883303;29;20230;-88
2022/11/13 01:26:26;;;;;;;23.73;10.20;;;6.70;99.90;;;;;;4883616;29;20227;-88
2022/11/13 01:28:52;;;;;;;19.17;9.43;;;;;;;;;;4883060;29;20188;-87
2022/11/13 01:31:20;;;;;;;30.03;11.23;;;6.70;99.90;;;;;;4899798;29;20284;-86
2022/11/13 01:33:47;;;;;;;26.77;9.23;;;6.70;99.90;;;;;;4883212;29;20193;-87
2022/11/13 01:36:21;;;;;;;25.13;8.87;;;6.70;99.90;;;;;;4883495;29;20249;-87
2022/11/13 01:38:47;;;;;;;26.80;11.17;;;;;;;;;;4883014;29;20217;-87
2022/11/13 01:41:20;;;;;;;26.40;11.40;;;6.60;99.90;;;;;;4882778;29;20209;-86
2022/11/13 01:43:46;;;;;;;25.50;11.70;;;;;;;;;;4899578;29;20264;-86
2022/11/13 01:46:45;;;;;;;25.90;9.87;;;6.70;99.90;;;;;;4899881;29;20189;-86
2022/11/13 01:49:11;;;;;;;32.83;11.57;;;;;;;;;;4885641;29;20212;-87
2022/11/13 01:51:54;;;;;;;25.90;10.50;;;6.60;99.90;;;;;;4899443;29;20635;-87
2022/11/13 01:54:32;;;;;;;36.60;12.10;;;6.60;99.90;;;;;;4899957;29;20268;-87
2022/11/13 01:56:58;;;;;;;21.87;10.17;;;6.60;99.90;;;;;;4883018;29;20247;-88
2022/11/13 01:59:38;;;;;;;35.20;13.30;;;6.70;99.90;;;;;;4867609;29;20194;-87
2022/11/13 02:02:04;;;;;;;25.93;8.93;;;;;;;;;;4900042;29;20181;-88
2022/11/13 02:04:31;;;;;;;23.00;10.23;;;6.60;99.90;;;;;;4883036;29;20189;-87
2022/11/13 02:07:17;;;;;;;36.57;11.33;;;10.00;99.90;;;;;;4902972;29;20186;-87
2022/11/13 02:09:49;;;;;;;20.70;9.30;;;6.60;99.90;;;;;;4885730;29;20626;-87
2022/11/13 02:12:20;;;;;;;29.50;9.20;;;6.60;99.90;;;;;;4868135;29;20267;-87
2022/11/13 02:14:50;;;;;;;27.43;11.43;;;6.60;99.90;;;;;;4882372;29;20181;-88
2022/11/13 02:17:29;;;;;;;29.17;9.30;;;6.60;99.90;;;;;;4899712;29;20213;-89
2022/11/13 02:19:59;;;;;;;27.20;9.60;;;6.60;99.90;;;;;;4900764;29;20185;-88
2022/11/13 02:22:34;;;;;;;23.10;8.97;;;6.60;99.90;;;;;;4888060;29;20181;-87
2022/11/13 02:25:02;;;;;;;18.93;8.93;;;6.60;99.90;;;;;;4891935;29;20181;-87
2022/11/13 02:27:48;;;;;;;28.03;9.57;;;9.40;99.90;;;;;;4891224;29;20200;-87
2022/11/13 02:30:20;;;;;;;19.67;8.60;;;6.30;99.90;;;;;;4888986;29;20185;-87
2022/11/13 02:32:47;;;;;;;21.40;8.33;;;6.50;99.90;;;;;;4904288;29;20212;-87
2022/11/13 02:35:19;;;;;;;20.67;9.03;;;6.50;99.90;;;;;;4887320;29;20252;-87
2022/11/13 02:37:45;;;;;;;22.03;9.27;;;;;;;;;;4902025;29;20288;-87
2022/11/13 02:40:11;;;;;;;21.83;7.93;;;6.50;99.90;;;;;;4884478;29;20193;-86
2022/11/13 02:42:37;;;;;;;26.37;7.43;;;;;;;;;;4873025;29;20185;-87
2022/11/13 02:45:04;;;;;;;20.73;8.93;;;6.60;99.90;;;;;;4890735;29;20186;-87
2022/11/13 02:47:30;;;;;;;29.23;10.17;;;;;;;;;;4908808;29;20189;-87
2022/11/13 02:49:56;;;;;;;29.20;10.87;;;;;;;;;;4894173;29;20196;-87
2022/11/13 02:52:21;;;;;;;22.73;9.17;;;6.60;99.90;;;;;;4881895;29;20228;-87
2022/11/13 02:54:47;;;;;;;26.47;10.13;;;;;;;;;;4916723;29;20276;-88
2022/11/13 02:57:13;;;;;;;23.63;8.80;;;;;;;;;;4885630;29;20209;-88
2022/11/13 02:59:40;;;;;;;25.83;10.40;;;6.60;99.90;;;;;;4917884;29;20245;-87
2022/11/13 03:02:06;;;;;;;19.23;9.33;;;;;;;;;;4900760;29;20213;-88
2022/11/13 03:04:32;;;;;;;19.97;9.07;;;;;;;;;;4918794;29;20217;-88
2022/11/13 03:06:58;;;;;;;15.77;7.57;;;;;;;;;;4905840;29;20261;-88
2022/11/13 03:09:24;;;;;;;24.33;8.43;;;6.40;99.90;;;;;;4890284;29;20233;-88
2022/11/13 03:11:50;;;;;;;20.80;7.93;;;;;;;;;;4903520;29;20202;-88
2022/11/13 03:14:16;;;;;;;24.53;7.63;;;;;;;;;;4889176;29;20189;-86
2022/11/13 03:16:42;;;;;;;29.83;9.30;;;;;;;;;;4901119;29;20193;-87
2022/11/13 03:19:07;;;;;;;24.43;7.33;;;6.40;99.90;;;;;;4867651;29;20193;-87
2022/11/13 03:21:33;;;;;;;23.13;9.27;;;;;;;;;;4884063;29;20313;-87
2022/11/13 03:23:59;;;;;;;17.53;7.23;;;;;;;;;;4869110;29;20217;-87
2022/11/13 03:26:29;;;;;;;18.37;7.10;;;;;;;;;;4887147;29;20193;-87
2022/11/13 03:28:55;;;;;;;20.90;7.70;;;;;;;;;;4902521;29;20177;-87
2022/11/13 03:31:21;;;;;;;18.97;8.53;;;6.50;99.90;;;;;;4900576;29;20658;-87
2022/11/13 03:33:47;;;;;;;23.77;8.30;;;;;;;;;;4884036;29;20188;-87
2022/11/13 03:36:13;;;;;;;16.90;7.97;;;;;;;;;;4885675;29;20184;-86
2022/11/13 03:38:39;;;;;;;20.23;7.50;;;;;;;;;;4913192;29;20209;-87
2022/11/13 03:41:05;;;;;;;28.33;8.57;;;;;;;;;;4900875;29;20211;-88
2022/11/13 03:43:31;;;;;;;29.03;7.97;;;;;;;;;;4904907;29;20264;-88
2022/11/13 03:45:57;;;;;;;14.10;7.93;;;6.40;99.90;;;;;;4923560;29;20166;-88
2022/11/13 03:48:23;;;;;;;23.13;7.17;;;7.00;99.90;;;;;;4920193;29;20693;-89
2022/11/13 03:50:52;;;;;;;13.77;6.33;;;6.40;99.90;;;;;;4894059;29;20185;-87
2022/11/13 03:53:18;;;;;;;21.33;6.67;;;;;;;;;;4891425;29;20185;-86
2022/11/13 03:55:44;;;;;;;16.13;6.63;;;6.50;99.90;;;;;;4888377;29;20189;-88
2022/11/13 03:58:10;;;;;;;20.40;7.93;;;;;;;;;;4886303;29;20221;-87
2022/11/13 04:00:37;;;;;;;20.03;8.00;;;6.30;99.90;;;;;;4885044;29;20667;-88
2022/11/13 04:03:03;;;;;;;16.10;7.53;;;;;;;;;;4901718;29;20250;-87
2022/11/13 04:05:29;;;;;;;17.73;6.97;;;;;;;;;;4869362;29;20302;-86
2022/11/13 04:07:55;;;;;;;19.03;8.83;;;;;;;;;;4884532;29;20201;-87
2022/11/13 04:10:21;;;;;;;17.57;6.67;;;;;;;;;;4902037;29;20296;-87
2022/11/13 04:12:47;;;;;;;12.10;6.87;;;;;;;;;;4884532;29;20190;-87
2022/11/13 04:15:13;;;;;;;21.80;6.63;;;6.40;99.90;;;;;;4884405;29;20185;-87
2022/11/13 04:17:39;;;;;;;23.17;8.83;;;6.40;99.90;;;;;;4901496;29;20209;-87
2022/11/13 04:20:05;;;;;;;22.63;8.70;;;9.40;99.90;;;;;;4868618;29;20324;-86
2022/11/13 04:22:31;;;;;;;21.33;8.87;;;;;;;;;;4884789;29;20197;-86
2022/11/13 04:24:57;;;;;;;19.40;7.97;;;;;;;;;;4901177;29;20203;-87
2022/11/13 04:27:23;;;;;;;16.00;7.93;;;;;;;;;;4884328;29;20194;-87
2022/11/13 04:29:49;;;;;;;19.03;6.23;;;6.40;99.90;;;;;;4884081;29;20225;-87
2022/11/13 04:32:14;;;;;;;22.00;7.53;;;9.10;99.90;;;;;;4884327;29;20276;-86
2022/11/13 04:34:40;;;;;;;24.23;8.33;;;9.10;99.90;;;;;;4900873;29;20185;-87
2022/11/13 04:37:05;;;;;;;17.17;7.80;;;6.40;99.90;;;;;;4900557;29;20208;-86
2022/11/13 04:39:31;;;;;;;23.73;9.13;;;7.60;99.90;;;;;;4884403;29;20618;-86
2022/11/13 04:44:42;;;;;;;24.03;9.33;;;;;;;;;;4887020;29;20236;-87
2022/11/13 04:47:08;;;;;;;22.70;8.13;;;;;;;;;;4900656;29;20193;-87
2022/11/13 04:49:34;;;;;;;19.07;8.53;;;;;;;;;;4882968;29;20193;-87
2022/11/13 04:52:00;;;;;;;24.53;8.17;;;;;;;;;;4883895;29;20658;-87
2022/11/13 04:54:25;;;;;;;19.80;6.73;;;6.40;99.90;;;;;;4900754;29;20268;-87
2022/11/13 04:56:51;;;;;;;23.10;7.77;;;;;;;;;;4883830;29;20540;-88
2022/11/13 04:59:17;;;;;;;19.63;9.20;;;6.40;99.90;;;;;;4883527;29;20245;-87
2022/11/13 05:01:43;;;;;;;17.17;7.10;;;;;;;;;;4883879;29;20185;-87
2022/11/13 05:04:12;;;;;;;17.80;6.50;;;6.40;99.90;;;;;;4883255;29;20193;-87
2022/11/13 05:06:38;;;;;;;22.70;7.83;;;;;;;;;;4900632;29;20184;-87
2022/11/13 05:09:04;;;;;;;18.00;7.70;;;;;;;;;;4900161;29;20233;-87
2022/11/13 05:11:30;;;;;;;16.30;7.00;;;;;;;;;;4883594;29;20195;-86
2022/11/13 05:13:56;;;;;;;17.97;6.67;;;;;;;;;;4884036;29;20185;-87
2022/11/13 05:16:21;;;;;;;16.73;6.37;;;6.40;99.90;;;;;;4883703;29;20528;-86
2022/11/13 05:18:47;;;;;;;25.73;7.93;;;;;;;;;;4883387;29;20209;-86
2022/11/13 05:21:13;;;;;;;19.73;7.50;;;6.40;99.90;;;;;;4883278;29;20189;-87
2022/11/13 05:23:39;;;;;;;23.00;10.17;;;;;;;;;;4883591;29;20194;-87
2022/11/13 05:26:15;;;;;;;17.23;7.37;;;6.40;99.90;;;;;;4868006;29;20213;-87
2022/11/13 05:28:41;;;;;;;12.87;5.70;;;;;;;;;;4883336;29;20181;-86
2022/11/13 05:31:10;;;;;;;24.40;8.40;;;6.40;99.90;;;;;;4882820;29;20186;-87
2022/11/13 05:33:37;;;;;;;16.10;6.13;;;6.40;99.90;;;;;;4883326;29;20520;-87
2022/11/13 05:36:05;;;;;;;27.83;7.97;;;6.40;99.90;;;;;;4883308;29;20284;-87
2022/11/13 05:38:31;;;;;;;16.63;6.83;;;;;;;;;;4883406;29;20216;-88
2022/11/13 05:41:05;;;;;;;14.83;6.23;;;6.40;99.90;;;;;;4882951;29;20198;-87
2022/11/13 05:43:31;;;;;;;17.67;7.63;;;;;;;;;;4867628;29;20186;-86
2022/11/13 05:46:05;;;;;;;27.73;6.93;;;6.60;99.90;;;;;;4867519;29;20185;-87
2022/11/13 05:48:32;;;;;;;25.10;8.97;;;;;;;;;;4883478;29;20185;-87
2022/11/13 05:51:09;;;;;;;17.50;7.60;;;6.40;99.90;;;;;;4883047;29;20181;-87
2022/11/13 05:53:36;;;;;;;15.70;7.90;;;6.40;99.90;;;;;;4899723;29;20316;-87
2022/11/13 05:56:17;;;;;;;23.07;9.13;;;6.40;99.90;;;;;;4899879;29;20193;-87
2022/11/13 05:58:44;;;;;;;14.67;6.43;;;6.50;99.90;;;;;;4883082;29;20205;-86
2022/11/13 06:01:20;;;;;;;18.10;6.83;;;9.10;99.90;;;;;;4866269;29;20204;-87
2022/11/13 06:03:46;;;;;;;26.10;8.80;;;;;;;;;;4887392;29;20186;-88
2022/11/13 06:06:15;;;;;;;14.40;5.53;;;6.40;99.90;;;;;;4893230;29;20182;-88
2022/11/13 06:08:43;;;;;;;12.23;6.83;;;6.40;99.90;;;;;;4872589;29;20241;-88
2022/11/13 06:11:12;;;;;;;18.83;8.13;;;6.50;99.90;;;;;;4868338;29;20187;-87
2022/11/13 06:13:38;;;;;;;15.93;5.57;;;6.50;99.90;;;;;;4866551;29;20182;-90
2022/11/13 06:16:10;;;;;;;20.07;6.40;;;6.50;99.90;;;;;;4881964;29;20193;-88
2022/11/13 06:18:37;;;;;;;17.10;6.77;;;6.50;99.90;;;;;;4880565;29;20221;-88
2022/11/13 06:21:17;;;;;;;14.33;6.23;;;6.40;99.90;;;;;;4863653;29;20758;-87
2022/11/13 06:23:43;;;;;;;10.43;5.13;;;;;;;;;;4879795;29;20757;-86
2022/11/13 06:26:12;;;;;;;17.60;7.97;;;6.50;99.90;;;;;;4877709;29;20378;-87
2022/11/13 06:28:39;;;;;;;25.40;8.03;;;;;;;;;;4877491;29;20686;-86
2022/11/13 06:31:08;;;;;;;17.27;5.63;;;6.40;99.90;;;;;;4877094;29;20193;-86
2022/11/13 06:33:37;;;;;;;13.40;6.23;;;;;;;;;;4877990;29;20189;-86
2022/11/13 06:36:13;;;;;;;16.57;7.17;;;6.40;99.90;;;;;;4876528;29;20198;-87
2022/11/13 06:38:40;;;;;;;19.37;7.30;;;;;;;;;;4876940;29;20245;-87
2022/11/13 06:41:07;;;;;;;10.63;4.50;;;6.50;99.90;;;;;;4877194;29;20663;-88
2022/11/13 06:43:35;;;;;;;14.33;6.90;;;6.50;99.90;;;;;;4877261;29;20190;-87
2022/11/13 06:46:06;;;;;;;14.80;5.93;;;6.50;99.90;;;;;;4877198;29;20198;-88
2022/11/13 06:48:33;;;;;;;13.40;6.63;;;;;;;;;;4878296;29;20299;-87
2022/11/13 06:51:03;;;;;;;19.80;6.07;;;6.40;99.90;;;;;;4882049;29;20189;-87
2022/11/13 06:53:30;;;;;;;16.83;5.93;;;6.50;99.90;;;;;;4886702;29;20250;-88
2022/11/13 06:55:56;;;;;;;10.67;6.57;;;;;;;;;;4864684;29;20213;-87
2022/11/13 06:58:22;;;;;;;21.30;7.90;;;;;;;;;;4868578;29;20212;-86
2022/11/13 07:00:49;;;;;;;20.10;6.47;;;;;;;;;;4877047;29;20198;-87
2022/11/13 07:03:22;;;;;;;23.03;7.53;;;6.50;99.90;;;;;;4877111;29;20197;-87
2022/11/13 07:05:48;;;;;;;12.37;5.37;;;;;;;;;;4876663;29;20214;-86
2022/11/13 07:08:15;;;;;;;21.30;7.37;;;6.50;99.90;;;;;;4878594;29;20296;-88
2022/11/13 07:10:41;;;;;;;14.60;6.33;;;;;;;;;;4883764;29;20192;-87
2022/11/13 07:13:08;;;;;;;17.17;6.97;;;;;;;;;;4867208;29;20197;-87
2022/11/13 07:15:37;;;;;;;31.50;9.45;;;6.60;99.90;;;;;;4851498;29;20433;-87
2022/11/13 07:18:06;;;;;;;21.70;6.83;;;6.70;99.90;;;;;;4867081;29;20257;-90
2022/11/13 07:20:32;;;;;;;18.13;5.73;;;6.70;99.90;;;;;;4866075;29;20189;-89
2022/11/13 07:23:00;;;;;;;16.90;6.07;;;6.70;99.90;;;;;;4864162;29;20650;-89
2022/11/13 07:25:27;;;;;;;20.10;7.23;;;6.70;99.90;;;;;;4861977;29;20215;-90
2022/11/13 07:27:54;;;;;;;17.00;7.97;;;;;;;;;;4861055;29;20197;-90
2022/11/13 07:30:23;;;;;;;19.73;6.57;;;6.70;99.90;;;;;;4861650;29;20607;-89
2022/11/13 07:32:49;;;;;;;12.57;5.17;;;;;;;;;;4865706;29;20686;-89
2022/11/13 07:35:18;;;;;;;19.17;6.83;;;;;;;;;;4864339;29;20209;-90
2022/11/13 07:37:44;;;;;;;17.07;6.20;;;;;;;;;;4861872;29;20252;-89
2022/11/13 07:40:10;;;;;;;18.80;6.60;;;;;;;;;;4862903;29;20201;-89
2022/11/13 07:42:37;;;;;;;8.63;5.07;;;;;;;;;;4861206;29;20272;-89
2022/11/13 07:45:03;;;;;;;17.60;5.53;;;6.90;99.90;;;;;;4868555;29;20203;-87
2022/11/13 07:47:32;;;;;;;16.17;4.57;;;;;;;;;;4863233;29;20193;-88
2022/11/13 07:49:58;;;;;;;14.00;5.47;;;;;;;;;;4862615;29;20193;-87
2022/11/13 07:52:24;;;;;;;14.03;5.40;;;;;;;;;;4862516;29;20212;-88
2022/11/13 07:54:50;;;;;;;10.80;4.53;;;;;;;;;;4861424;29;20212;-89
2022/11/13 07:57:16;;;;;;;18.10;5.70;;;;;;;;;;4860542;29;20297;-89
2022/11/13 07:59:42;;;;;;;11.23;5.67;;;;;;;;;;4861519;29;20194;-89
2022/11/13 08:02:14;;;;;;;13.07;4.77;;;7.00;99.90;;;;;;4862531;29;20190;-89
2022/11/13 08:04:40;;;;;;;13.47;4.70;;;;;;;;;;4861195;29;20178;-88
2022/11/13 08:07:06;;;;;;;11.73;5.50;;;;;;;;;;4845665;29;20205;-89
2022/11/13 08:09:32;;;;;;;13.90;6.00;;;;;;;;;;4872502;29;20703;-87
2022/11/13 08:11:58;;;;;;;9.17;4.03;;;;;;;;;;4876974;29;20269;-87
2022/11/13 08:14:23;;;;;;;12.73;4.63;;;7.10;99.90;;;;;;4890773;29;20300;-87
2022/11/13 08:16:49;;;;;;;9.10;4.17;;;;;;;;;;4886368;29;20186;-89
2022/11/13 08:19:16;;;;;;;12.13;5.07;;;;;;;;;;4881608;29;20202;-91
2022/11/13 08:21:42;;;;;;;9.70;4.77;;;;;;;;;;4881809;29;20234;-87
2022/11/13 08:24:09;;;;;;;11.97;5.33;;;7.10;99.90;;;;;;4878530;29;20193;-87
2022/11/13 08:26:37;;;;;;;9.67;5.00;;;7.20;99.90;;;;;;4882827;29;20201;-88
2022/11/13 08:29:03;;;;;;;11.00;4.50;;;10.00;99.90;;;;;;4880054;29;20182;-87
2022/11/13 08:31:29;;;;;;;12.30;4.53;;;;;;;;;;4880154;29;20205;-86
2022/11/13 08:33:55;;;;;;;7.73;4.13;;;;;;;;;;4871386;29;20219;-87
2022/11/13 08:36:21;;;;;;;9.40;5.03;;;;;;;;;;4889761;29;20194;-87
2022/11/13 08:38:47;;;;;;;10.70;4.67;;;7.20;99.90;;;;;;4890751;29;20216;-86
2022/11/13 08:41:16;;;;;;;7.93;3.63;;;9.90;99.90;;;;;;4888652;29;20232;-85
2022/11/13 08:43:42;;;;;;;9.60;3.70;;;;;;;;;;4895437;29;20194;-85
2022/11/13 08:46:08;;;;;;;11.67;3.93;;;7.50;99.90;;;;;;4873751;29;20205;-85
2022/11/13 08:48:34;;;;;;;17.87;7.07;;;8.70;99.90;;;;;;4877297;29;20201;-88
2022/11/13 08:51:00;;;;;;;15.10;4.77;;;;;;;;;;4893434;29;20194;-88
2022/11/13 08:53:26;;;;;;;8.40;3.57;;;7.30;99.90;;;;;;4893385;29;20195;-86
2022/11/13 08:55:52;;;;;;;6.10;3.23;;;;;;;;;;4893285;29;20245;-86
2022/11/13 08:58:18;;;;;;;10.50;3.63;;;;;;;;;;4876318;29;20222;-87
2022/11/13 09:00:44;;;;;;;7.37;4.47;;;;;;;;;;4881650;29;20226;-85
2022/11/13 09:03:13;;;;;;;10.67;4.50;;;7.20;99.90;;;;;;4897364;29;20208;-87
2022/11/13 09:05:39;;;;;;;11.97;4.17;;;;;;;;;;4896727;29;20197;-86
2022/11/13 09:08:05;;;;;;;8.60;3.33;;;7.10;99.90;;;;;;4875857;29;20210;-86
2022/11/13 09:10:31;;;;;;;7.63;3.17;;;7.30;99.90;;;;;;4842715;29;20655;-87
2022/11/13 09:13:00;;;;;;;7.07;4.00;;;7.30;99.90;;;;;;4857452;29;20186;-87
2022/11/13 09:15:26;;;;;;;9.80;4.43;;;;;;;;;;4855115;29;20234;-88
2022/11/13 09:17:56;;;;;;;7.83;4.10;;;7.30;99.90;;;;;;4869210;29;20213;-85
2022/11/13 09:20:22;;;;;;;12.70;4.23;;;7.20;99.90;;;;;;4886413;29;20200;-88
2022/11/13 09:22:50;;;;;;;7.97;4.43;;;;;;;;;;4869776;29;20189;-86
2022/11/13 09:25:16;;;;;;;8.93;3.73;;;;;;;;;;4864682;29;20206;-86
2022/11/13 09:27:42;;;;;;;14.07;4.90;;;;;;;;;;4864915;29;20210;-88
2022/11/13 09:30:11;;;;;;;17.20;5.90;;;7.40;99.90;;;;;;4868643;29;20719;-89
2022/11/13 09:32:37;;;;;;;8.90;3.53;;;7.40;99.90;;;;;;4849247;29;20678;-85
2022/11/13 09:35:03;;;;;;;11.80;4.57;;;7.50;99.90;;;;;;4841081;29;20277;-86
2022/11/13 09:37:31;;;;;;;10.60;3.87;;;;;;;;;;4881513;29;20309;-89
2022/11/13 09:39:57;;;;;;;6.53;3.63;;;;;;;;;;4866135;29;20659;-84
2022/11/13 09:42:27;;;;;;;11.10;4.30;;;7.60;99.90;;;;;;4850905;29;20197;-87
2022/11/13 09:44:58;;;;;;;11.43;4.87;;;7.70;99.90;;;;;;4883035;29;20181;-85
2022/11/13 09:47:30;;;;;;;9.30;3.70;;;8.70;99.90;;;;;;4878125;29;20222;-86
2022/11/13 09:50:03;;;;;;;6.90;2.83;;;7.70;99.90;;;;;;4865466;29;20603;-85
2022/11/13 09:52:35;;;;;;;7.63;3.90;;;7.60;99.90;;;;;;4868340;29;20198;-84
2022/11/13 09:55:03;;;;;;;12.40;5.07;;;7.60;99.90;;;;;;4883155;29;20249;-86
2022/11/13 09:57:38;;;;;;;11.83;4.60;;;7.60;99.90;;;;;;4849874;29;20225;-83
2022/11/13 10:00:14;;;;;;;19.77;7.60;;;7.80;99.90;;;;;;4865142;29;20248;-84
2022/11/13 10:02:57;;;;;;;10.10;4.90;;;7.80;99.90;;;;;;4871611;29;20596;-86
2022/11/13 10:05:28;;;;;;;12.00;5.53;;;7.80;99.90;;;;;;4863939;29;20198;-87
2022/11/13 10:08:05;;;;;;;9.23;4.30;;;7.90;99.90;;;;;;4865096;29;20198;-87
2022/11/13 10:10:54;;;;;;;12.10;4.40;;;7.90;99.90;;;;;;4865705;29;20197;-86
2022/11/13 10:13:32;;;;;;;9.87;4.43;;;8.00;99.90;;;;;;4864654;29;20181;-87
2022/11/13 10:16:10;;;;;;;9.73;3.57;;;8.10;99.90;;;;;;4863351;29;20205;-86
2022/11/13 10:18:38;;;;;;;8.83;4.47;;;7.90;99.90;;;;;;4862645;29;20605;-88
2022/11/13 10:21:26;;;;;;;8.23;4.23;;;8.90;99.90;;;;;;4879423;29;20269;-86
2022/11/13 10:23:55;;;;;;;11.43;4.70;;;8.00;99.90;;;;;;4880127;29;20338;-86
2022/11/13 10:26:26;;;;;;;13.67;3.93;;;8.00;99.90;;;;;;4862891;29;20190;-85
2022/11/13 10:29:07;;;;;;;5.30;3.57;;;8.10;99.90;;;;;;4879791;29;20741;-87
2022/11/13 10:31:47;;;;;;;5.50;2.93;;;8.10;99.90;;;;;;4860736;29;20627;-87
2022/11/13 10:34:14;;;;;;;6.30;3.57;;;8.20;99.90;;;;;;4879830;29;20201;-87
2022/11/13 10:37:07;;;;;;;5.10;2.17;;;8.60;99.90;;;;;;4879718;29;20193;-87
2022/11/13 10:39:43;;;;;;;4.80;2.97;;;8.10;99.90;;;;;;4862169;29;20222;-88
2022/11/13 10:42:38;;;;;;;4.63;2.13;;;8.20;99.90;;;;;;4859338;29;20232;-87
2022/11/13 10:45:12;;;;;;;7.47;3.00;;;8.50;99.90;;;;;;4871959;29;20194;-87
2022/11/13 10:47:45;;;;;;;8.70;3.43;;;8.40;99.90;;;;;;4876246;29;20182;-87
2022/11/13 10:50:22;;;;;;;4.90;2.83;;;8.40;99.90;;;;;;4875807;29;20186;-87
2022/11/13 10:52:50;;;;;;;8.70;4.03;;;8.40;99.90;;;;;;4888753;29;20186;-86
2022/11/13 10:55:38;;;;;;;2.93;1.63;;;8.40;99.90;;;;;;4867845;29;20189;-85
2022/11/13 10:58:14;;;;;;;5.37;3.30;;;8.40;99.90;;;;;;4867249;29;20198;-86
2022/11/13 11:00:43;;;;;;;9.13;3.20;;;;;;;;;;4879773;29;20707;-87
2022/11/13 11:03:23;;;;;;;7.37;2.73;;;8.30;99.90;;;;;;4862617;29;20193;-87
2022/11/13 11:05:59;;;;;;;7.10;3.20;;;8.50;99.90;;;;;;4879225;29;20182;-86
2022/11/13 11:08:33;;;;;;;9.13;3.43;;;8.50;99.90;;;;;;4862095;29;20252;-87
2022/11/13 11:13:51;;;;;;;7.83;2.77;;;;;;;;;;4881216;29;20197;-87
2022/11/13 11:16:22;;;;;;;7.17;3.10;;;8.60;99.90;;;;;;4879707;29;20257;-87
2022/11/13 11:19:01;;;;;;;7.27;2.80;;;8.70;99.90;;;;;;4879274;29;20296;-88
2022/11/13 11:21:32;;;;;;;4.17;2.53;;;8.80;99.90;;;;;;4874364;29;20286;-85
2022/11/13 11:23:58;;;;;;;6.30;2.77;;;;;;;;;;4877761;29;20189;-85
2022/11/13 11:26:56;;;;;;;11.23;2.53;;;8.70;99.90;;;;;;4877389;29;20200;-87
2022/11/13 11:30:03;;;;;;;10.73;4.00;;;8.90;99.90;;;;;;4869061;29;20198;-87
2022/11/13 11:32:51;;;;;;;5.70;3.40;;;9.10;99.90;;;;;;4861923;29;20246;-86
2022/11/13 11:35:50;;;;;;;5.73;3.07;;;9.10;99.90;;;;;;4875622;29;20185;-86
2022/11/13 11:38:16;;;;;;;12.50;4.23;;;;;;;;;;4876666;29;20242;-86
2022/11/13 11:40:47;;;;;;;6.07;2.40;;;9.00;99.90;;;;;;4878471;29;20190;-86
2022/11/13 11:43:42;;;;;;;5.60;2.47;;;8.80;99.90;;;;;;4876168;29;20190;-86
2022/11/13 11:46:11;;;;;;;6.87;2.90;;;8.80;99.90;;;;;;4876584;29;20186;-86
2022/11/13 11:48:38;;;;;;;4.00;2.17;;;;;;;;;;4877165;29;20189;-86
2022/11/13 11:51:32;;;;;;;8.10;3.13;;;8.70;99.90;;;;;;4861838;29;20182;-86
2022/11/13 11:54:33;;;;;;;5.23;2.63;;;8.70;99.90;;;;;;4879987;29;20212;-88
2022/11/13 11:57:15;;;;;;;4.73;2.50;;;8.70;99.90;;;;;;4877898;29;20189;-87
2022/11/13 12:00:11;;;;;;;5.00;2.70;;;8.80;99.90;;;;;;4893290;29;20670;-87
2022/11/13 12:02:37;;;;;;;5.17;2.70;;;;;;;;;;4883201;29;20205;-86
2022/11/13 12:05:39;;;;;;;6.83;3.13;;;8.90;99.90;;;;;;4880313;29;20548;-86
2022/11/13 12:08:43;;;;;;;4.50;2.73;;;8.70;99.90;;;;;;4882920;29;20199;-87
2022/11/13 12:11:29;;;;;;;6.93;3.40;;;9.00;99.90;;;;;;4900567;29;20288;-87
2022/11/13 12:14:21;;;;;;;5.93;3.20;;;7.00;99.90;;;;;;4901358;29;20216;-87
2022/11/13 12:17:15;;;;;;;5.13;2.63;;;9.30;99.90;;;;;;4881795;29;20181;-87
2022/11/13 12:19:52;;;;;;;6.90;2.20;;;9.30;99.90;;;;;;4883957;29;20534;-87
2022/11/13 12:22:52;;;;;;;5.80;2.40;;;8.90;99.90;;;;;;4883702;29;20209;-87
2022/11/13 12:25:51;;;;;;;3.53;1.73;;;10.70;99.90;;;;;;4882626;29;21211;-88
2022/11/13 12:28:58;;;;;;;4.07;1.87;;;8.80;99.90;;;;;;4883691;29;20194;-87
2022/11/13 12:31:24;;;;;;;3.00;1.90;;;;;;;;;;4881297;29;20197;-85
2022/11/13 12:34:12;;;;;;;4.87;2.30;;;8.90;99.90;;;;;;4882722;29;20196;-88
2022/11/13 12:36:39;;;;;;;3.67;2.20;;;;;;;;;;4870675;29;20208;-85
2022/11/13 12:39:22;;;;;;;3.33;1.83;;;8.80;99.90;;;;;;4881266;29;20243;-87
2022/11/13 12:42:22;;;;;;;;;;;;;;;;;;;;;
2022/11/13 12:44:53;;;;;;;1.67;1.53;;;9.80;99.90;;;;;;4888689;29;20569;-89
2022/11/13 12:47:19;;;;;;;8.30;1.97;;;;;;;;;;4895798;29;20728;-88
2022/11/13 12:49:45;;;;;;;4.33;1.93;;;;;;;;;;4878803;29;20284;-87
2022/11/13 12:52:23;;;;;;;5.23;2.37;;;8.80;99.90;;;;;;4881575;29;20260;-87
2022/11/13 12:54:51;;;;;;;6.17;3.27;;;;;;;;;;4889673;29;20212;-87
2022/11/13 12:57:22;;;;;;;6.67;3.03;;;8.80;99.90;;;;;;4874976;29;20292;-88
2022/11/13 13:00:08;;;;;;;4.87;2.50;;;8.90;99.90;;;;;;4884166;29;20185;-89
2022/11/13 13:02:34;;;;;;;5.03;2.00;;;;;;;;;;4879746;29;20185;-88
2022/11/13 13:05:12;;;;;;;5.07;2.30;;;9.10;99.90;;;;;;4880897;29;20821;-87
2022/11/13 13:08:11;;;;;;;7.13;2.20;;;8.90;99.90;;;;;;4893909;29;20263;-87
2022/11/13 13:11:09;;;;;;;4.30;2.27;;;8.80;99.90;;;;;;4874289;29;20284;-87
2022/11/13 13:13:38;;;;;;;3.20;1.80;;;8.80;99.90;;;;;;4896057;29;20192;-87
2022/11/13 13:16:05;;;;;;;4.47;1.57;;;8.80;99.90;;;;;;4901195;29;20304;-87
2022/11/13 13:18:39;;;;;;;2.33;1.50;;;8.80;99.90;;;;;;4900854;29;20213;-86
2022/11/13 13:21:17;;;;;;;2.73;1.63;;;8.50;99.90;;;;;;4881831;29;20193;-88
2022/11/13 13:23:52;;;;;;;3.20;1.47;;;8.60;99.90;;;;;;4905268;29;20295;-86
2022/11/13 13:26:24;;;;;;;3.63;1.83;;;8.60;99.90;;;;;;4905809;29;20193;-86
2022/11/13 13:28:55;;;;;;;4.50;2.17;;;8.60;99.90;;;;;;4901030;29;20222;-86
2022/11/13 13:31:37;;;;;;;2.60;1.93;;;9.00;99.90;;;;;;4867138;29;20204;-87
2022/11/13 13:34:26;;;;;;;3.50;2.50;;;8.50;99.90;;;;;;4897646;29;20196;-88
2022/11/13 13:37:17;;;;;;;4.13;1.83;;;8.40;99.90;;;;;;4902385;29;20196;-87
2022/11/13 13:39:45;;;;;;;3.77;2.30;;;;;;;;;;4873522;29;20231;-88
2022/11/13 13:42:14;;;;;;;6.13;2.60;;;8.30;99.90;;;;;;4878265;29;20297;-87
2022/11/13 13:44:56;;;;;;;3.70;2.03;;;8.20;99.90;;;;;;4883424;29;20197;-86
2022/11/13 13:47:39;;;;;;;8.53;2.47;;;8.20;99.90;;;;;;4895974;29;20200;-87
2022/11/13 13:50:10;;;;;;;2.63;1.70;;;8.20;99.90;;;;;;4882006;29;20193;-87
2022/11/13 13:52:37;;;;;;;4.80;2.10;;;;;;;;;;4880475;29;20190;-87